createdAt,value
2023-09-23T00:01:58.839Z,93.20
2023-09-23T00:04:35.224Z,93.37
2023-09-23T00:07:06.951Z,93.46
2023-09-23T00:09:38.293Z,93.52
2023-09-23T00:12:10.124Z,93.52
2023-09-23T00:14:42.214Z,93.53
2023-09-23T00:17:13.308Z,93.36
2023-09-23T00:19:44.299Z,93.17
2023-09-23T00:22:15.415Z,92.94
2023-09-23T00:24:47.133Z,93.12
2023-09-23T00:27:18.901Z,93.08
2023-09-23T00:29:50.466Z,93.05
2023-09-23T00:32:22.527Z,93.07
2023-09-23T00:34:53.993Z,93.00
2023-09-23T00:37:25.540Z,93.07
2023-09-23T00:39:56.608Z,93.10
2023-09-23T00:42:28.658Z,93.15
2023-09-23T00:45:00.145Z,93.16
2023-09-23T00:47:32.336Z,93.12
2023-09-23T00:50:23.493Z,92.81
2023-09-23T00:52:55.189Z,92.69
2023-09-23T00:55:27.229Z,93.04
2023-09-23T00:58:01.800Z,93.18
2023-09-23T01:00:33.687Z,93.04
2023-09-23T01:03:05.290Z,93.02
2023-09-23T01:05:37.318Z,92.87
2023-09-23T01:08:26.146Z,92.92
2023-09-23T01:10:57.162Z,93.19
2023-09-23T01:13:31.320Z,93.35
2023-09-23T01:16:08.350Z,93.24
2023-09-23T01:18:39.883Z,93.20
2023-09-23T01:21:10.943Z,92.88
2023-09-23T01:24:01.650Z,92.58
2023-09-23T01:26:32.814Z,92.91
2023-09-23T01:29:05.487Z,92.81
2023-09-23T01:31:36.927Z,92.99
2023-09-23T01:34:09.522Z,92.89
2023-09-23T01:36:40.588Z,92.72
2023-09-23T01:39:12.367Z,92.73
2023-09-23T01:41:43.402Z,92.49
2023-09-23T01:44:15.737Z,92.58
2023-09-23T01:46:48.111Z,92.65
2023-09-23T01:49:19.429Z,92.93
2023-09-23T01:51:50.548Z,93.03
2023-09-23T01:54:21.748Z,93.00
2023-09-23T01:56:52.821Z,92.66
2023-09-23T01:59:23.961Z,92.74
2023-09-23T02:01:55.152Z,92.82
2023-09-23T02:04:26.718Z,93.01
2023-09-23T02:06:57.609Z,93.07
2023-09-23T02:09:28.798Z,93.13
2023-09-23T02:12:00.869Z,93.03
2023-09-23T02:14:32.255Z,93.08
2023-09-23T02:17:03.865Z,93.03
2023-09-23T02:19:36.512Z,93.26
2023-09-23T02:22:08.224Z,93.34
2023-09-23T02:24:39.275Z,93.37
2023-09-23T02:27:10.475Z,93.62
2023-09-23T02:29:42.343Z,93.51
2023-09-23T02:32:13.694Z,93.44
2023-09-23T02:34:46.632Z,93.41
2023-09-23T02:37:18.831Z,93.48
2023-09-23T02:39:50.284Z,93.51
2023-09-23T02:42:21.504Z,93.41
2023-09-23T02:44:54.034Z,93.08
2023-09-23T02:47:25.400Z,92.89
2023-09-23T02:49:56.820Z,92.90
2023-09-23T02:52:28.131Z,93.20
2023-09-23T02:54:59.460Z,93.32
2023-09-23T02:57:32.917Z,93.15
2023-09-23T03:00:14.705Z,93.18
2023-09-23T03:02:51.800Z,93.49
2023-09-23T03:05:28.256Z,93.41
2023-09-23T03:08:00.766Z,93.27
2023-09-23T03:10:41.635Z,93.14
2023-09-23T03:13:13.858Z,92.92
2023-09-23T03:15:51.366Z,92.89
2023-09-23T03:18:34.738Z,92.99
2023-09-23T03:21:11.485Z,92.94
2023-09-23T03:23:42.865Z,92.80
2023-09-23T03:26:16.881Z,92.85
2023-09-23T03:28:48.661Z,93.07
2023-09-23T03:31:20.156Z,93.21
2023-09-23T03:33:51.792Z,93.34
2023-09-23T03:36:26.085Z,93.15
2023-09-23T03:38:58.508Z,93.11
2023-09-23T03:41:29.638Z,93.16
2023-09-23T03:44:00.857Z,93.12
2023-09-23T03:46:32.005Z,93.08
2023-09-23T03:49:03.714Z,93.04
2023-09-23T03:51:36.166Z,93.01
2023-09-23T03:54:08.739Z,93.09
2023-09-23T03:56:41.749Z,93.35
2023-09-23T03:59:13.272Z,93.34
2023-09-23T04:01:45.475Z,93.32
2023-09-23T04:04:16.996Z,93.20
2023-09-23T04:06:48.032Z,93.11
2023-09-23T04:09:19.209Z,93.30
2023-09-23T04:11:51.295Z,93.52
2023-09-23T04:14:25.212Z,93.74
2023-09-23T04:16:56.592Z,93.73
2023-09-23T04:19:29.466Z,93.65
2023-09-23T04:22:00.508Z,93.55
2023-09-23T04:24:32.310Z,93.52
2023-09-23T04:27:03.753Z,93.80
2023-09-23T04:29:36.042Z,94.01
2023-09-23T04:32:07.518Z,94.13
2023-09-23T04:34:41.865Z,94.26
2023-09-23T04:37:13.720Z,94.33
2023-09-23T04:39:45.081Z,94.46
2023-09-23T04:42:16.424Z,94.60
2023-09-23T04:44:47.542Z,94.46
2023-09-23T04:47:20.953Z,94.48
2023-09-23T04:49:52.965Z,94.54
2023-09-23T04:52:24.554Z,94.60
2023-09-23T04:54:56.238Z,94.48
2023-09-23T04:57:27.266Z,94.49
2023-09-23T04:59:58.966Z,94.43
2023-09-23T05:02:30.380Z,94.31
2023-09-23T05:05:01.739Z,94.30
2023-09-23T05:07:33.856Z,94.38
2023-09-23T05:10:06.278Z,94.22
2023-09-23T05:12:37.484Z,94.14
2023-09-23T05:15:11.254Z,94.12
2023-09-23T05:17:45.346Z,94.05
2023-09-23T05:22:57.704Z,93.90
2023-09-23T05:25:29.829Z,93.93
2023-09-23T05:28:03.179Z,93.99
2023-09-23T05:30:34.569Z,94.05
2023-09-23T05:33:06.847Z,93.95
2023-09-23T05:35:39.482Z,93.95
2023-09-23T05:38:11.805Z,93.92
2023-09-23T05:40:42.889Z,93.88
2023-09-23T05:43:13.993Z,93.91
2023-09-23T05:45:45.391Z,93.93
2023-09-23T05:48:16.576Z,93.98
2023-09-23T05:50:48.510Z,93.98
2023-09-23T05:53:19.610Z,94.08
2023-09-23T05:55:51.199Z,94.01
2023-09-23T05:58:22.070Z,93.91
2023-09-23T06:00:54.078Z,94.17
2023-09-23T06:03:25.311Z,94.09
2023-09-23T06:05:56.759Z,94.16
2023-09-23T06:08:27.993Z,94.15
2023-09-23T06:11:06.416Z,94.16
2023-09-23T06:13:38.209Z,93.98
2023-09-23T06:16:10.381Z,93.95
2023-09-23T06:18:41.725Z,94.03
2023-09-23T06:21:13.081Z,94.08
2023-09-23T06:23:45.911Z,94.08
2023-09-23T06:26:18.100Z,94.05
2023-09-23T06:28:49.492Z,94.01
2023-09-23T06:31:20.680Z,94.00
2023-09-23T06:33:51.826Z,93.93
2023-09-23T06:36:23.021Z,93.89
2023-09-23T06:38:54.107Z,93.75
2023-09-23T06:41:25.675Z,93.71
2023-09-23T06:43:56.911Z,93.80
2023-09-23T06:46:28.157Z,93.75
2023-09-23T06:49:00.077Z,93.66
2023-09-23T06:51:31.512Z,93.25
2023-09-23T06:54:03.018Z,93.35
2023-09-23T06:56:35.934Z,93.13
2023-09-23T06:59:07.161Z,93.20
2023-09-23T07:01:38.620Z,93.08
2023-09-23T07:04:10.326Z,93.03
2023-09-23T07:06:41.534Z,92.74
2023-09-23T07:09:15.403Z,92.58
2023-09-23T07:11:46.585Z,92.25
2023-09-23T07:14:17.713Z,91.87
2023-09-23T07:16:49.699Z,91.75
2023-09-23T07:19:21.047Z,91.85
2023-09-23T07:21:52.172Z,91.69
2023-09-23T07:24:23.490Z,91.71
2023-09-23T07:26:58.195Z,91.57
2023-09-23T07:29:29.664Z,91.23
2023-09-23T07:32:01.298Z,90.76
2023-09-23T07:34:32.889Z,90.65
2023-09-23T07:37:04.245Z,90.45
2023-09-23T07:39:35.399Z,89.94
2023-09-23T07:42:06.936Z,89.85
2023-09-23T07:44:37.954Z,89.70
2023-09-23T07:47:09.128Z,89.96
2023-09-23T07:49:40.630Z,89.12
2023-09-23T07:52:11.821Z,89.24
2023-09-23T07:54:42.992Z,89.37
2023-09-23T07:57:14.079Z,88.91
2023-09-23T07:59:45.134Z,88.42
2023-09-23T08:02:16.196Z,87.95
2023-09-23T08:04:47.176Z,87.86
2023-09-23T08:07:18.273Z,87.91
2023-09-23T08:09:49.198Z,88.19
2023-09-23T08:12:20.342Z,88.01
2023-09-23T08:14:52.092Z,87.40
2023-09-23T08:17:23.189Z,86.87
2023-09-23T08:19:56.016Z,86.72
2023-09-23T08:22:27.282Z,86.65
2023-09-23T08:24:58.971Z,86.63
2023-09-23T08:27:31.259Z,86.63
2023-09-23T08:30:02.327Z,86.75
2023-09-23T08:32:35.543Z,85.65
2023-09-23T08:35:08.975Z,85.41
2023-09-23T08:37:40.473Z,84.22
2023-09-23T08:40:13.602Z,82.66
2023-09-23T08:42:44.608Z,81.51
2023-09-23T08:45:15.844Z,82.23
2023-09-23T08:47:46.969Z,82.42
2023-09-23T08:50:20.344Z,82.52
2023-09-23T08:52:51.668Z,82.22
2023-09-23T08:55:24.214Z,81.88
2023-09-23T08:57:55.753Z,81.91
2023-09-23T09:00:27.009Z,81.87
2023-09-23T09:02:58.422Z,81.68
2023-09-23T09:05:40.279Z,82.61
2023-09-23T09:08:11.510Z,82.49
2023-09-23T09:10:43.008Z,82.13
2023-09-23T09:13:14.517Z,81.79
2023-09-23T09:15:46.422Z,81.38
2023-09-23T09:18:19.358Z,80.18
2023-09-23T09:20:50.401Z,79.92
2023-09-23T09:23:21.693Z,78.89
2023-09-23T09:25:53.076Z,79.42
2023-09-23T09:28:25.363Z,78.83
2023-09-23T09:31:00.830Z,79.08
2023-09-23T09:33:37.257Z,79.74
2023-09-23T09:36:10.652Z,79.30
2023-09-23T09:38:44.483Z,78.89
2023-09-23T09:41:22.943Z,78.95
2023-09-23T09:43:54.167Z,78.91
2023-09-23T09:46:30.944Z,78.78
2023-09-23T09:49:03.085Z,79.27
2023-09-23T09:51:37.216Z,79.50
2023-09-23T09:54:12.724Z,78.47
2023-09-23T09:56:45.075Z,78.44
2023-09-23T09:59:27.244Z,77.82
2023-09-23T10:02:01.885Z,76.78
2023-09-23T10:04:35.045Z,75.43
2023-09-23T10:07:10.513Z,76.35
2023-09-23T10:09:55.225Z,76.33
2023-09-23T10:12:32.487Z,75.93
2023-09-23T10:15:05.322Z,76.37
2023-09-23T10:17:39.125Z,76.25
2023-09-23T10:20:18.817Z,75.56
2023-09-23T10:22:55.340Z,75.62
2023-09-23T10:25:38.067Z,74.02
2023-09-23T10:28:20.574Z,74.44
2023-09-23T10:31:01.272Z,75.34
2023-09-23T10:33:35.939Z,75.00
2023-09-23T10:36:09.006Z,71.10
2023-09-23T10:38:40.165Z,67.85
2023-09-23T10:41:14.537Z,68.82
2023-09-23T10:43:53.893Z,68.50
2023-09-23T10:46:25.149Z,67.99
2023-09-23T10:48:56.197Z,67.60
2023-09-23T10:51:27.544Z,68.34
2023-09-23T10:53:58.824Z,69.79
2023-09-23T10:56:30.549Z,67.81
2023-09-23T10:59:01.751Z,68.48
2023-09-23T11:01:33.111Z,68.03
2023-09-23T11:04:05.541Z,68.66
2023-09-23T11:06:38.493Z,68.24
2023-09-23T11:09:10.215Z,68.12
2023-09-23T11:11:41.343Z,68.34
2023-09-23T11:14:16.769Z,67.66
2023-09-23T11:16:49.798Z,66.96
2023-09-23T11:19:20.843Z,66.57
2023-09-23T11:21:52.673Z,67.38
2023-09-23T11:24:24.008Z,67.27
2023-09-23T11:26:55.141Z,66.06
2023-09-23T11:29:28.514Z,65.16
2023-09-23T11:32:00.520Z,65.71
2023-09-23T11:34:32.535Z,66.33
2023-09-23T11:37:07.041Z,66.08
2023-09-23T11:39:39.021Z,65.52
2023-09-23T11:42:10.140Z,64.96
2023-09-23T11:44:41.360Z,62.77
2023-09-23T11:47:12.484Z,62.39
2023-09-23T11:49:43.699Z,62.61
2023-09-23T11:52:15.021Z,64.09
2023-09-23T11:54:47.163Z,62.57
2023-09-23T11:57:18.471Z,62.79
2023-09-23T11:59:49.474Z,62.53
2023-09-23T12:02:22.552Z,61.74
2023-09-23T12:04:53.892Z,60.97
2023-09-23T12:07:25.706Z,60.79
2023-09-23T12:09:56.831Z,60.76
2023-09-23T12:12:29.404Z,59.56
2023-09-23T12:15:02.456Z,59.71
2023-09-23T12:17:34.921Z,59.41
2023-09-23T12:20:12.560Z,60.23
2023-09-23T12:22:46.209Z,60.64
2023-09-23T12:25:18.905Z,60.76
2023-09-23T12:27:49.988Z,61.41
2023-09-23T12:30:21.421Z,61.44
2023-09-23T12:32:52.656Z,60.08
2023-09-23T12:35:24.515Z,59.96
2023-09-23T12:37:55.817Z,60.83
2023-09-23T12:40:26.906Z,59.65
2023-09-23T12:42:58.079Z,58.91
2023-09-23T12:45:29.096Z,58.53
2023-09-23T12:48:00.551Z,59.32
2023-09-23T12:50:31.766Z,59.82
2023-09-23T12:53:03.479Z,60.31
2023-09-23T12:55:34.828Z,61.53
2023-09-23T12:58:07.093Z,62.00
2023-09-23T13:00:39.354Z,61.46
2023-09-23T13:03:12.032Z,62.14
2023-09-23T13:05:43.649Z,62.72
2023-09-23T13:08:16.220Z,63.00
2023-09-23T13:10:48.125Z,62.68
2023-09-23T13:13:19.174Z,62.92
2023-09-23T13:15:50.255Z,63.33
2023-09-23T13:18:21.469Z,63.83
2023-09-23T13:20:52.932Z,64.47
2023-09-23T13:23:24.217Z,64.35
2023-09-23T13:25:55.348Z,65.16
2023-09-23T13:28:26.532Z,64.91
2023-09-23T13:30:57.935Z,64.45
2023-09-23T13:33:29.370Z,64.97
2023-09-23T13:36:00.631Z,65.73
2023-09-23T13:38:32.065Z,65.48
2023-09-23T13:41:05.691Z,65.70
2023-09-23T13:43:39.864Z,65.68
2023-09-23T13:46:11.136Z,65.55
2023-09-23T13:48:42.274Z,65.74
2023-09-23T13:51:13.488Z,65.16
2023-09-23T13:53:45.947Z,65.16
2023-09-23T13:56:17.241Z,65.74
2023-09-23T13:58:52.483Z,66.38
2023-09-23T14:01:24.070Z,66.27
2023-09-23T14:03:55.133Z,65.82
2023-09-23T14:06:26.458Z,65.84
2023-09-23T14:08:57.527Z,66.11
2023-09-23T14:11:29.651Z,65.93
2023-09-23T14:14:04.606Z,66.02
2023-09-23T14:16:36.160Z,66.47
2023-09-23T14:19:09.272Z,66.43
2023-09-23T14:21:40.562Z,66.51
2023-09-23T14:24:12.726Z,66.86
2023-09-23T14:26:44.781Z,67.30
2023-09-23T14:29:15.759Z,66.43
2023-09-23T14:31:46.954Z,66.15
2023-09-23T14:34:18.310Z,65.08
2023-09-23T14:36:49.911Z,64.60
2023-09-23T14:39:23.036Z,64.87
2023-09-23T14:41:54.394Z,65.02
2023-09-23T14:44:25.759Z,64.32
2023-09-23T14:46:56.803Z,63.78
2023-09-23T14:49:28.390Z,64.24
2023-09-23T14:51:59.368Z,64.24
2023-09-23T14:54:30.901Z,64.96
2023-09-23T14:57:02.620Z,65.45
2023-09-23T14:59:37.010Z,65.87
2023-09-23T15:02:08.764Z,66.31
2023-09-23T15:04:40.076Z,67.30
2023-09-23T15:07:12.242Z,66.84
2023-09-23T15:09:44.482Z,67.13
2023-09-23T15:12:15.650Z,67.03
2023-09-23T15:14:47.748Z,67.72
2023-09-23T15:17:19.098Z,68.17
2023-09-23T15:19:50.106Z,67.75
2023-09-23T15:22:21.202Z,67.04
2023-09-23T15:24:52.942Z,67.60
2023-09-23T15:27:24.132Z,67.80
2023-09-23T15:29:55.535Z,67.89
2023-09-23T15:32:26.667Z,68.27
2023-09-23T15:34:57.933Z,70.47
2023-09-23T15:37:29.104Z,71.41
2023-09-23T15:40:00.256Z,71.89
2023-09-23T15:42:34.151Z,72.23
2023-09-23T15:45:05.596Z,72.43
2023-09-23T15:47:36.742Z,73.24
2023-09-23T15:50:08.919Z,73.39
2023-09-23T15:52:40.116Z,73.38
2023-09-23T15:55:12.972Z,73.50
2023-09-23T15:57:44.392Z,73.48
2023-09-23T16:00:17.337Z,73.53
2023-09-23T16:02:49.099Z,73.59
2023-09-23T16:05:20.775Z,74.03
2023-09-23T16:07:52.180Z,74.37
2023-09-23T16:10:23.449Z,74.70
2023-09-23T16:12:54.636Z,75.21
2023-09-23T16:15:25.763Z,75.48
2023-09-23T16:17:57.243Z,75.57
2023-09-23T16:20:28.740Z,75.92
2023-09-23T16:22:59.922Z,76.34
2023-09-23T16:25:31.122Z,76.60
2023-09-23T16:28:02.270Z,76.68
2023-09-23T16:30:33.518Z,76.95
2023-09-23T16:33:05.555Z,77.10
2023-09-23T16:35:36.965Z,76.96
2023-09-23T16:38:08.508Z,76.96
2023-09-23T16:40:39.825Z,77.38
2023-09-23T16:43:11.162Z,77.85
2023-09-23T16:45:45.591Z,78.17
2023-09-23T16:48:16.926Z,78.48
2023-09-23T16:50:50.696Z,78.88
2023-09-23T16:53:22.450Z,79.14
2023-09-23T16:55:53.696Z,79.34
2023-09-23T16:58:25.689Z,79.10
2023-09-23T17:00:57.221Z,79.37
2023-09-23T17:03:28.998Z,79.58
2023-09-23T17:06:00.609Z,79.72
2023-09-23T17:08:32.481Z,79.98
2023-09-23T17:11:04.718Z,80.03
2023-09-23T17:13:39.489Z,79.91
2023-09-23T17:16:11.299Z,80.20
2023-09-23T17:18:42.647Z,80.41
2023-09-23T17:21:13.889Z,80.48
2023-09-23T17:23:45.129Z,80.51
2023-09-23T17:26:16.320Z,80.71
2023-09-23T17:28:47.577Z,80.96
2023-09-23T17:31:18.941Z,80.98
2023-09-23T17:33:50.083Z,81.30
2023-09-23T17:36:22.107Z,81.32
2023-09-23T17:38:53.377Z,81.62
2023-09-23T17:41:24.540Z,81.66
2023-09-23T17:43:55.833Z,81.75
2023-09-23T17:46:29.463Z,81.98
2023-09-23T17:49:01.210Z,82.35
2023-09-23T17:51:32.891Z,82.73
2023-09-23T17:54:04.285Z,82.59
2023-09-23T17:56:35.571Z,82.64
2023-09-23T17:59:09.811Z,82.70
2023-09-23T18:01:41.529Z,82.99
2023-09-23T18:04:13.868Z,82.93
2023-09-23T18:06:45.687Z,83.19
2023-09-23T18:09:16.976Z,83.42
2023-09-23T18:11:48.596Z,83.40
2023-09-23T18:14:20.037Z,83.79
2023-09-23T18:16:51.252Z,83.45
2023-09-23T18:19:23.091Z,83.81
2023-09-23T18:21:54.960Z,83.73
2023-09-23T18:24:26.084Z,83.81
2023-09-23T18:26:57.436Z,83.66
2023-09-23T18:29:28.647Z,83.59
2023-09-23T18:31:59.761Z,84.33
2023-09-23T18:34:31.362Z,84.84
2023-09-23T18:37:02.680Z,85.10
2023-09-23T18:39:34.313Z,84.54
2023-09-23T18:42:05.584Z,84.50
2023-09-23T18:44:36.746Z,84.56
2023-09-23T18:47:08.694Z,84.65
2023-09-23T18:49:40.125Z,84.53
2023-09-23T18:52:11.446Z,84.99
2023-09-23T18:54:42.732Z,84.71
2023-09-23T18:57:15.002Z,84.75
2023-09-23T18:59:46.993Z,84.91
2023-09-23T19:02:19.940Z,84.81
2023-09-23T19:04:51.153Z,84.67
2023-09-23T19:07:22.365Z,85.24
2023-09-23T19:09:53.738Z,85.77
2023-09-23T19:12:24.934Z,85.60
2023-09-23T19:14:56.903Z,85.51
2023-09-23T19:17:28.359Z,85.53
2023-09-23T19:19:59.646Z,85.57
2023-09-23T19:22:30.824Z,85.54
2023-09-23T19:25:03.528Z,85.66
2023-09-23T19:27:35.813Z,85.64
2023-09-23T19:30:15.852Z,85.46
2023-09-23T19:32:47.448Z,85.50
2023-09-23T19:35:19.067Z,85.76
2023-09-23T19:37:50.866Z,86.11
2023-09-23T19:40:22.151Z,86.09
2023-09-23T19:42:53.182Z,86.42
2023-09-23T19:45:24.252Z,86.57
2023-09-23T19:47:55.824Z,86.79
2023-09-23T19:50:29.101Z,86.92
2023-09-23T19:53:01.017Z,87.09
2023-09-23T19:55:32.759Z,86.70
2023-09-23T19:58:04.208Z,86.67
2023-09-23T20:00:38.471Z,86.53
2023-09-23T20:03:11.819Z,86.41
2023-09-23T20:05:44.018Z,86.43
2023-09-23T20:08:17.267Z,86.52
2023-09-23T20:10:50.999Z,86.44
2023-09-23T20:13:22.908Z,86.56
2023-09-23T20:15:54.867Z,86.95
2023-09-23T20:18:26.160Z,86.56
2023-09-23T20:20:57.183Z,86.45
2023-09-23T20:23:30.636Z,86.62
2023-09-23T20:26:02.923Z,86.65
2023-09-23T20:28:35.218Z,87.16
2023-09-23T20:31:06.563Z,87.21
2023-09-23T20:33:37.780Z,86.80
2023-09-23T20:36:10.017Z,86.41
2023-09-23T20:38:41.336Z,86.33
2023-09-23T20:41:16.051Z,86.54
2023-09-23T20:43:50.410Z,87.10
2023-09-23T20:46:21.794Z,87.15
2023-09-23T20:48:52.895Z,87.00
2023-09-23T20:51:24.638Z,87.09
2023-09-23T20:53:56.757Z,87.56
2023-09-23T20:56:29.950Z,87.17
2023-09-23T20:59:02.896Z,87.32
2023-09-23T21:01:35.261Z,87.30
2023-09-23T21:04:08.027Z,87.25
2023-09-23T21:06:39.296Z,87.46
2023-09-23T21:09:16.629Z,86.89
2023-09-23T21:11:47.829Z,86.80
2023-09-23T21:14:19.024Z,86.73
2023-09-23T21:16:51.036Z,86.91
2023-09-23T21:19:22.648Z,86.55
2023-09-23T21:21:53.811Z,86.82
2023-09-23T21:24:23.515Z,86.96
2023-09-23T21:26:55.165Z,86.49
2023-09-23T21:29:26.435Z,86.38
2023-09-23T21:31:57.901Z,86.40
2023-09-23T21:34:29.191Z,86.60
2023-09-23T21:37:00.209Z,87.16
2023-09-23T21:39:31.600Z,86.96
2023-09-23T21:42:02.984Z,86.86
2023-09-23T21:44:37.812Z,86.71
2023-09-23T21:47:10.174Z,86.63
2023-09-23T21:49:41.483Z,86.60
2023-09-23T21:52:12.678Z,86.98
2023-09-23T21:54:44.402Z,87.44
2023-09-23T21:57:15.710Z,87.70
2023-09-23T21:59:47.077Z,87.66
2023-09-23T22:02:18.448Z,87.43
2023-09-23T22:04:49.775Z,87.51
2023-09-23T22:07:21.135Z,87.59
2023-09-23T22:09:53.537Z,88.18
2023-09-23T22:12:27.202Z,88.35
2023-09-23T22:14:58.965Z,87.82
2023-09-23T22:17:30.152Z,87.81
2023-09-23T22:20:02.289Z,88.07
2023-09-23T22:22:34.921Z,88.12
2023-09-23T22:25:08.817Z,88.33
2023-09-23T22:27:39.896Z,88.32
2023-09-23T22:30:11.526Z,88.19
2023-09-23T22:32:44.486Z,88.38
2023-09-23T22:35:16.666Z,88.41
2023-09-23T22:37:48.700Z,88.27
2023-09-23T22:40:20.430Z,88.28
2023-09-23T22:42:52.052Z,88.48
2023-09-23T22:45:36.105Z,88.51
2023-09-23T22:48:10.753Z,88.18
2023-09-23T22:50:45.619Z,87.77
2023-09-23T22:53:19.325Z,87.57
2023-09-23T22:55:51.083Z,87.67
2023-09-23T22:58:22.833Z,87.40
2023-09-23T23:00:53.976Z,87.54
2023-09-23T23:03:25.470Z,87.54
2023-09-23T23:05:58.033Z,88.04
2023-09-23T23:08:29.585Z,87.92
2023-09-23T23:10:59.252Z,87.79
2023-09-23T23:13:28.887Z,88.23
2023-09-23T23:16:00.071Z,87.98
2023-09-23T23:18:31.714Z,88.05
2023-09-23T23:21:04.933Z,87.98
2023-09-23T23:23:36.300Z,88.13
2023-09-23T23:26:10.382Z,88.25
2023-09-23T23:28:41.518Z,88.11
2023-09-23T23:31:13.639Z,87.78
2023-09-23T23:33:45.891Z,87.82
2023-09-23T23:36:17.328Z,87.78
2023-09-23T23:38:48.568Z,87.71
2023-09-23T23:41:19.937Z,88.04
2023-09-23T23:43:51.146Z,88.27
2023-09-23T23:46:23.217Z,88.77
2023-09-23T23:48:54.246Z,89.15
2023-09-23T23:51:27.481Z,89.03
2023-09-23T23:53:58.781Z,88.91
2023-09-23T23:56:31.117Z,88.69
2023-09-23T23:59:02.612Z,88.16
